createdAt,value
2019-05-23T00:02:03.964Z,9.10
2019-05-23T00:04:39.565Z,11.70
2019-05-23T00:07:12.537Z,11.10
2019-05-23T00:09:42.111Z,10.40
2019-05-23T00:12:13.242Z,13.13
2019-05-23T00:14:47.204Z,10.60
2019-05-23T00:17:17.058Z,10.17
2019-05-23T00:19:45.928Z,12.17
2019-05-23T00:22:14.584Z,10.13
2019-05-23T00:24:42.977Z,9.07
2019-05-23T00:27:13.167Z,10.60
2019-05-23T00:29:43.038Z,10.37
2019-05-23T00:32:17.061Z,10.80
2019-05-23T00:34:45.189Z,9.57
2019-05-23T00:37:13.771Z,10.53
2019-05-23T00:39:43.093Z,11.40
2019-05-23T00:42:12.885Z,11.23
2019-05-23T00:44:41.363Z,10.47
2019-05-23T00:47:11.348Z,10.37
2019-05-23T00:49:41.400Z,10.53
2019-05-23T00:52:09.605Z,14.00
2019-05-23T00:54:38.432Z,14.03
2019-05-23T00:57:07.419Z,13.30
2019-05-23T00:59:35.906Z,10.43
2019-05-23T01:02:05.970Z,14.53
2019-05-23T01:04:34.568Z,10.27
2019-05-23T01:07:03.524Z,11.13
2019-05-23T01:09:32.321Z,11.70
2019-05-23T01:12:02.082Z,13.87
2019-05-23T01:14:30.384Z,16.57
2019-05-23T01:16:58.893Z,11.10
2019-05-23T01:19:27.103Z,10.33
2019-05-23T01:22:00.022Z,10.20
2019-05-23T01:24:35.478Z,12.33
2019-05-23T01:27:05.830Z,11.97
2019-05-23T01:29:38.349Z,14.87
2019-05-23T01:32:27.173Z,12.60
2019-05-23T01:34:55.593Z,11.57
2019-05-23T01:37:24.387Z,11.13
2019-05-23T01:39:52.851Z,11.30
2019-05-23T01:42:22.269Z,10.30
2019-05-23T01:44:51.961Z,13.20
2019-05-23T01:47:20.092Z,11.03
2019-05-23T01:49:49.042Z,14.43
2019-05-23T01:52:17.541Z,10.30
2019-05-23T01:54:46.700Z,11.27
2019-05-23T01:57:16.190Z,10.33
2019-05-23T01:59:44.585Z,10.63
2019-05-23T02:02:13.858Z,10.10
2019-05-23T02:04:42.185Z,10.53
2019-05-23T02:07:10.389Z,11.10
2019-05-23T02:09:38.518Z,12.30
2019-05-23T02:12:08.522Z,10.80
2019-05-23T02:14:38.328Z,12.17
2019-05-23T02:17:07.223Z,11.07
2019-05-23T02:19:35.465Z,9.90
2019-05-23T02:22:03.719Z,12.20
2019-05-23T02:24:31.843Z,10.97
2019-05-23T02:27:00.376Z,11.90
2019-05-23T02:29:29.311Z,13.67
2019-05-23T02:31:57.470Z,10.93
2019-05-23T02:34:26.133Z,12.10
2019-05-23T02:36:55.580Z,11.30
2019-05-23T02:39:31.473Z,10.27
2019-05-23T02:42:06.943Z,11.30
2019-05-23T02:44:35.277Z,11.67
2019-05-23T02:47:21.612Z,11.00
2019-05-23T02:49:49.896Z,13.10
2019-05-23T02:52:25.457Z,13.30
2019-05-23T02:54:54.432Z,13.37
2019-05-23T02:57:24.277Z,12.70
2019-05-23T02:59:55.585Z,10.87
2019-05-23T03:02:38.857Z,13.20
2019-05-23T03:05:10.161Z,13.07
2019-05-23T03:07:38.652Z,14.17
2019-05-23T03:10:08.998Z,11.20
2019-05-23T03:12:38.753Z,15.20
2019-05-23T03:15:08.638Z,12.20
2019-05-23T03:17:38.437Z,11.90
2019-05-23T03:20:08.586Z,17.03
2019-05-23T03:22:39.886Z,13.60
2019-05-23T03:25:10.369Z,12.17
2019-05-23T03:27:40.046Z,13.13
2019-05-23T03:30:10.471Z,11.10
2019-05-23T03:32:52.970Z,15.27
2019-05-23T03:35:31.953Z,13.60
2019-05-23T03:38:01.570Z,17.73
2019-05-23T03:40:30.772Z,13.30
2019-05-23T03:42:59.959Z,13.33
2019-05-23T03:45:32.862Z,12.03
2019-05-23T03:48:01.877Z,17.37
2019-05-23T03:50:30.822Z,13.83
2019-05-23T03:52:59.525Z,14.07
2019-05-23T03:55:28.610Z,14.37
2019-05-23T03:57:57.218Z,15.70
2019-05-23T04:00:26.971Z,12.50
2019-05-23T04:02:55.139Z,14.00
2019-05-23T04:05:24.156Z,13.77
2019-05-23T04:07:52.628Z,13.00
2019-05-23T04:10:21.514Z,13.13
2019-05-23T04:12:50.172Z,11.50
2019-05-23T04:15:19.305Z,12.40
2019-05-23T04:17:47.898Z,13.47
2019-05-23T04:20:16.877Z,13.27
2019-05-23T04:22:45.261Z,15.37
2019-05-23T04:25:13.937Z,11.60
2019-05-23T04:27:42.922Z,10.93
2019-05-23T04:30:11.391Z,12.77
2019-05-23T04:32:40.073Z,11.77
2019-05-23T04:35:09.138Z,9.90
2019-05-23T04:37:37.244Z,9.50
2019-05-23T04:40:06.574Z,10.50
2019-05-23T04:42:34.964Z,8.20
2019-05-23T04:45:04.136Z,8.50
2019-05-23T04:47:32.829Z,9.20
2019-05-23T04:50:01.011Z,9.07
2019-05-23T04:52:29.217Z,6.63
2019-05-23T04:54:58.452Z,7.80
2019-05-23T04:57:27.520Z,8.93
2019-05-23T04:59:56.269Z,7.13
2019-05-23T05:02:26.879Z,5.57
2019-05-23T05:04:54.293Z,6.37
2019-05-23T05:07:22.689Z,7.97
2019-05-23T05:09:50.941Z,5.63
2019-05-23T05:12:19.430Z,6.73
2019-05-23T05:14:48.385Z,4.63
2019-05-23T05:17:17.334Z,6.53
2019-05-23T05:19:45.579Z,6.67
2019-05-23T05:22:13.991Z,4.80
2019-05-23T05:24:42.192Z,6.17
2019-05-23T05:27:10.772Z,4.17
2019-05-23T05:29:39.089Z,5.67
2019-05-23T05:32:07.554Z,8.87
2019-05-23T05:34:35.763Z,5.87
2019-05-23T05:37:03.979Z,7.17
2019-05-23T05:39:32.938Z,6.63
2019-05-23T05:42:01.273Z,5.87
2019-05-23T05:44:32.834Z,5.17
2019-05-23T05:47:01.027Z,4.87
2019-05-23T05:49:29.501Z,7.77
2019-05-23T05:51:57.681Z,7.27
2019-05-23T05:54:25.840Z,6.07
2019-05-23T05:56:54.019Z,5.43
2019-05-23T05:59:22.659Z,5.27
2019-05-23T06:01:51.248Z,5.00
2019-05-23T06:04:19.528Z,5.93
2019-05-23T06:06:50.186Z,5.63
2019-05-23T06:09:20.100Z,6.37
2019-05-23T06:11:48.233Z,7.20
2019-05-23T06:14:16.405Z,8.93
2019-05-23T06:16:45.013Z,11.57
2019-05-23T06:19:13.984Z,6.70
2019-05-23T06:21:43.259Z,7.97
2019-05-23T06:24:11.910Z,8.27
2019-05-23T06:26:42.060Z,11.43
2019-05-23T06:29:10.240Z,7.97
2019-05-23T06:31:39.413Z,8.53
2019-05-23T06:34:07.584Z,7.77
2019-05-23T06:36:35.883Z,10.70
2019-05-23T06:39:06.207Z,8.03
2019-05-23T06:41:34.657Z,10.53
2019-05-23T06:44:03.731Z,9.50
2019-05-23T06:46:32.322Z,10.57
2019-05-23T06:49:00.456Z,14.47
2019-05-23T06:51:29.041Z,11.07
2019-05-23T06:53:57.614Z,11.23
2019-05-23T06:56:26.114Z,13.43
2019-05-23T06:58:54.297Z,16.83
2019-05-23T07:01:22.648Z,11.30
2019-05-23T07:03:50.777Z,13.10
2019-05-23T07:06:20.420Z,13.57
2019-05-23T07:08:48.731Z,15.10
2019-05-23T07:11:18.057Z,11.77
2019-05-23T07:13:47.009Z,15.90
2019-05-23T07:16:15.116Z,10.07
2019-05-23T07:18:43.861Z,11.57
2019-05-23T07:21:12.200Z,14.80
2019-05-23T07:23:40.602Z,9.90
2019-05-23T07:26:08.890Z,11.70
2019-05-23T07:28:37.116Z,11.57
2019-05-23T07:31:05.973Z,9.80
2019-05-23T07:33:34.569Z,11.97
2019-05-23T07:36:02.711Z,13.97
2019-05-23T07:38:30.970Z,11.53
2019-05-23T07:40:59.444Z,9.63
2019-05-23T07:43:27.741Z,10.00
2019-05-23T07:46:00.667Z,11.40
2019-05-23T07:48:29.049Z,10.40
2019-05-23T07:50:57.261Z,11.00
2019-05-23T07:53:27.365Z,10.67
2019-05-23T07:56:00.792Z,9.83
2019-05-23T07:58:29.142Z,10.30
2019-05-23T08:01:01.767Z,10.67
2019-05-23T08:03:31.487Z,13.20
2019-05-23T08:05:59.621Z,9.37
2019-05-23T08:08:27.901Z,10.00
2019-05-23T08:10:56.012Z,10.60
2019-05-23T08:13:24.756Z,8.03
2019-05-23T08:15:53.221Z,8.90
2019-05-23T08:18:21.505Z,9.17
2019-05-23T08:20:50.728Z,8.73
2019-05-23T08:23:19.140Z,8.53
2019-05-23T08:25:47.260Z,8.00
2019-05-23T08:28:15.657Z,8.33
2019-05-23T08:30:43.862Z,7.83
2019-05-23T08:33:12.814Z,7.97
2019-05-23T08:35:41.205Z,6.90
2019-05-23T08:38:10.076Z,7.17
2019-05-23T08:40:38.839Z,7.37
2019-05-23T08:43:07.470Z,7.13
2019-05-23T08:45:35.660Z,8.40
2019-05-23T08:48:04.851Z,8.57
2019-05-23T08:50:32.991Z,6.53
2019-05-23T08:53:01.168Z,7.03
2019-05-23T08:55:29.869Z,7.70
2019-05-23T08:57:58.860Z,9.10
2019-05-23T09:00:29.934Z,7.13
2019-05-23T09:02:59.266Z,7.90
2019-05-23T09:05:34.705Z,7.73
2019-05-23T09:08:03.680Z,7.70
2019-05-23T09:10:32.649Z,7.47
2019-05-23T09:13:00.766Z,7.43
2019-05-23T09:15:29.233Z,5.30
2019-05-23T09:17:57.790Z,7.47
2019-05-23T09:20:26.380Z,5.47
2019-05-23T09:22:54.564Z,10.43
2019-05-23T09:25:22.684Z,8.87
2019-05-23T09:27:52.897Z,7.43
2019-05-23T09:30:21.666Z,7.10
2019-05-23T09:32:50.570Z,7.23
2019-05-23T09:35:22.182Z,4.90
2019-05-23T09:37:50.002Z,6.23
2019-05-23T09:40:18.478Z,4.10
2019-05-23T09:42:46.631Z,4.67
2019-05-23T09:45:15.384Z,4.27
2019-05-23T09:47:43.572Z,3.90
2019-05-23T09:50:13.395Z,4.37
2019-05-23T09:52:41.520Z,4.93
2019-05-23T09:55:09.776Z,8.17
2019-05-23T09:57:37.993Z,5.27
2019-05-23T10:00:08.057Z,5.27
2019-05-23T10:02:36.262Z,5.43
2019-05-23T10:05:08.873Z,5.83
2019-05-23T10:07:37.477Z,4.77
2019-05-23T10:10:05.927Z,7.63
2019-05-23T10:12:34.053Z,2.90
2019-05-23T10:15:02.636Z,2.73
2019-05-23T10:17:31.128Z,4.23
2019-05-23T10:19:59.346Z,3.60
2019-05-23T10:22:27.452Z,4.13
2019-05-23T10:24:55.649Z,3.43
2019-05-23T10:27:24.013Z,5.43
2019-05-23T10:29:52.219Z,4.10
2019-05-23T10:32:20.664Z,5.57
2019-05-23T10:34:48.794Z,3.90
2019-05-23T10:37:18.590Z,3.33
2019-05-23T10:39:48.297Z,4.73
2019-05-23T10:42:16.641Z,5.47
2019-05-23T10:44:45.144Z,2.60
2019-05-23T10:47:13.469Z,3.73
2019-05-23T10:49:41.603Z,2.80
2019-05-23T10:52:09.719Z,2.07
2019-05-23T10:54:38.010Z,5.13
2019-05-23T10:57:06.272Z,3.37
2019-05-23T10:59:34.833Z,3.03
2019-05-23T11:02:03.805Z,4.27
2019-05-23T11:04:32.188Z,2.60
2019-05-23T11:07:00.580Z,2.80
2019-05-23T11:09:37.894Z,2.67
2019-05-23T11:11:59.694Z,3.20
2019-05-23T11:14:28.090Z,3.90
2019-05-23T11:16:56.757Z,3.03
2019-05-23T11:19:24.993Z,2.80
2019-05-23T11:21:53.412Z,2.00
2019-05-23T11:24:22.007Z,2.53
2019-05-23T11:26:50.877Z,2.87
2019-05-23T11:29:19.093Z,2.67
2019-05-23T11:31:47.433Z,2.90
2019-05-23T11:34:15.536Z,2.93
2019-05-23T11:36:43.980Z,3.60
2019-05-23T11:39:14.150Z,3.00
2019-05-23T11:41:42.318Z,3.13
2019-05-23T11:44:10.436Z,6.50
2019-05-23T11:46:38.722Z,4.87
2019-05-23T11:49:07.490Z,3.83
2019-05-23T11:51:36.549Z,10.97
2019-05-23T11:54:08.445Z,4.13
2019-05-23T11:56:35.065Z,3.23
2019-05-23T11:59:03.358Z,5.70
2019-05-23T12:01:33.179Z,3.57
2019-05-23T12:04:06.028Z,4.80
2019-05-23T12:06:53.626Z,3.23
2019-05-23T12:09:06.508Z,5.33
2019-05-23T12:11:39.461Z,3.17
2019-05-23T12:14:05.613Z,3.53
2019-05-23T12:16:33.966Z,5.30
2019-05-23T12:19:02.742Z,3.17
2019-05-23T12:21:30.982Z,3.00
2019-05-23T12:23:59.374Z,5.63
2019-05-23T12:26:27.629Z,3.20
2019-05-23T12:28:55.893Z,3.70
2019-05-23T12:31:24.205Z,2.63
2019-05-23T12:33:52.318Z,2.80
2019-05-23T12:36:20.446Z,3.23
2019-05-23T12:38:48.625Z,2.53
2019-05-23T12:41:16.935Z,3.77
2019-05-23T12:43:47.043Z,4.20
2019-05-23T12:46:15.259Z,2.60
2019-05-23T12:48:47.867Z,2.53
2019-05-23T12:51:20.676Z,3.73
2019-05-23T12:53:49.118Z,4.13
2019-05-23T12:56:17.258Z,5.03
2019-05-23T12:58:47.287Z,5.63
2019-05-23T13:01:16.090Z,3.50
2019-05-23T13:03:44.632Z,2.47
2019-05-23T13:06:12.983Z,2.30
2019-05-23T13:08:41.676Z,3.43
2019-05-23T13:11:09.867Z,3.17
2019-05-23T13:13:37.994Z,3.43
2019-05-23T13:16:06.097Z,4.43
2019-05-23T13:18:34.226Z,3.77
2019-05-23T13:21:02.474Z,3.00
2019-05-23T13:23:30.715Z,2.13
2019-05-23T13:25:59.153Z,3.70
2019-05-23T13:28:27.362Z,2.43
2019-05-23T13:30:55.473Z,2.90
2019-05-23T13:33:24.366Z,2.93
2019-05-23T13:35:52.862Z,2.20
2019-05-23T13:38:21.205Z,3.17
2019-05-23T13:40:49.345Z,6.43
2019-05-23T13:43:17.535Z,3.57
2019-05-23T13:45:45.673Z,3.10
2019-05-23T13:48:13.775Z,2.80
2019-05-23T13:50:41.978Z,2.70
2019-05-23T13:53:10.106Z,3.53
2019-05-23T13:55:38.872Z,4.60
2019-05-23T13:58:07.182Z,2.97
2019-05-23T14:00:35.393Z,3.00
2019-05-23T14:03:04.921Z,4.97
2019-05-23T14:05:33.123Z,3.93
2019-05-23T14:08:11.511Z,4.83
2019-05-23T14:10:31.429Z,3.40
2019-05-23T14:12:59.533Z,2.73
2019-05-23T14:15:41.440Z,6.00
2019-05-23T14:18:09.912Z,2.73
2019-05-23T14:20:38.254Z,2.77
2019-05-23T14:23:22.731Z,3.70
2019-05-23T14:25:51.821Z,4.00
2019-05-23T14:28:20.404Z,5.57
2019-05-23T14:31:06.754Z,4.70
2019-05-23T14:33:39.642Z,4.07
2019-05-23T14:36:11.982Z,3.67
2019-05-23T14:38:40.259Z,2.67
2019-05-23T14:41:08.533Z,3.90
2019-05-23T14:43:36.803Z,5.13
2019-05-23T14:46:09.415Z,2.87
2019-05-23T14:48:39.249Z,2.20
2019-05-23T14:51:12.146Z,3.77
2019-05-23T14:53:51.119Z,3.80
2019-05-23T14:56:20.942Z,2.57
2019-05-23T14:58:49.312Z,2.43
2019-05-23T15:01:18.210Z,2.17
2019-05-23T15:03:46.316Z,1.90
2019-05-23T15:06:14.454Z,1.97
2019-05-23T15:08:50.907Z,2.20
2019-05-23T15:11:12.769Z,1.60
2019-05-23T15:13:41.120Z,1.43
2019-05-23T15:16:10.281Z,2.43
2019-05-23T15:18:38.385Z,2.33
2019-05-23T15:21:06.586Z,1.50
2019-05-23T15:23:34.966Z,2.50
2019-05-23T15:26:21.100Z,3.03
2019-05-23T15:28:32.937Z,2.37
2019-05-23T15:31:01.052Z,2.03
2019-05-23T15:33:29.198Z,1.33
2019-05-23T15:35:57.441Z,2.30
2019-05-23T15:38:25.650Z,2.73
2019-05-23T15:40:53.835Z,1.40
2019-05-23T15:43:22.125Z,4.80
2019-05-23T15:45:50.564Z,1.60
2019-05-23T15:48:18.701Z,7.37
2019-05-23T15:50:53.234Z,4.97
2019-05-23T15:53:25.781Z,5.77
2019-05-23T15:56:26.900Z,21.07
2019-05-23T15:58:42.579Z,4.80
2019-05-23T16:01:12.327Z,2.70
2019-05-23T16:03:42.341Z,3.50
2019-05-23T16:06:14.920Z,2.67
2019-05-23T16:08:43.623Z,3.77
2019-05-23T16:11:12.384Z,4.87
2019-05-23T16:13:40.796Z,3.13
2019-05-23T16:16:09.173Z,4.70
2019-05-23T16:18:37.312Z,1.33
2019-05-23T16:21:05.497Z,3.93
2019-05-23T16:23:33.789Z,1.40
2019-05-23T16:26:01.977Z,3.10
2019-05-23T16:28:30.113Z,3.13
2019-05-23T16:30:58.622Z,2.70
2019-05-23T16:33:26.761Z,3.47
2019-05-23T16:35:54.870Z,4.30
2019-05-23T16:38:23.059Z,2.10
2019-05-23T16:40:51.169Z,1.93
2019-05-23T16:43:19.310Z,3.10
2019-05-23T16:45:47.497Z,31.00
2019-05-23T16:48:15.605Z,4.80
2019-05-23T16:50:44.105Z,8.80
2019-05-23T16:53:12.383Z,4.50
2019-05-23T16:55:44.904Z,2.23
2019-05-23T16:58:14.661Z,2.53
2019-05-23T17:01:02.555Z,2.37
2019-05-23T17:03:35.327Z,2.93
2019-05-23T17:06:14.660Z,2.83
2019-05-23T17:08:47.105Z,2.67
2019-05-23T17:11:33.256Z,4.67
2019-05-23T17:14:19.936Z,1.93
2019-05-23T17:17:06.065Z,3.37
2019-05-23T17:19:41.987Z,3.73
2019-05-23T17:22:28.335Z,4.37
2019-05-23T17:24:58.096Z,2.37
2019-05-23T17:27:30.868Z,2.67
2019-05-23T17:30:08.683Z,3.10
2019-05-23T17:32:36.724Z,3.00
2019-05-23T17:35:05.513Z,3.10
2019-05-23T17:37:33.705Z,3.97
2019-05-23T17:40:02.280Z,2.37
2019-05-23T17:42:30.651Z,4.07
2019-05-23T17:44:59.262Z,2.37
2019-05-23T17:47:28.545Z,2.97
2019-05-23T17:52:23.679Z,7.37
2019-05-23T17:54:52.052Z,4.23
2019-05-23T17:57:20.763Z,3.53
2019-05-23T17:59:49.041Z,2.47
2019-05-23T18:02:17.961Z,3.07
2019-05-23T18:04:46.511Z,2.73
2019-05-23T18:07:14.627Z,4.93
2019-05-23T18:09:43.122Z,2.90
2019-05-23T18:12:11.446Z,2.20
2019-05-23T18:14:40.499Z,1.77
2019-05-23T18:17:09.372Z,2.67
2019-05-23T18:19:38.569Z,4.40
2019-05-23T18:22:08.360Z,4.93
2019-05-23T18:24:37.217Z,2.80
2019-05-23T18:27:06.133Z,32.97
2019-05-23T18:29:34.512Z,2.20
2019-05-23T18:32:04.263Z,2.63
2019-05-23T18:34:32.507Z,3.10
2019-05-23T18:37:01.085Z,5.47
2019-05-23T18:39:29.968Z,3.30
2019-05-23T18:41:58.637Z,2.63
2019-05-23T18:44:27.108Z,5.70
2019-05-23T18:46:57.247Z,3.53
2019-05-23T18:49:25.739Z,3.87
2019-05-23T18:51:54.110Z,4.60
2019-05-23T18:54:22.363Z,3.93
2019-05-23T18:56:50.800Z,4.10
2019-05-23T18:59:19.274Z,3.40
2019-05-23T19:01:47.763Z,4.67
2019-05-23T19:04:15.892Z,7.33
2019-05-23T19:06:44.248Z,7.40
2019-05-23T19:09:14.066Z,5.83
2019-05-23T19:11:42.333Z,7.47
2019-05-23T19:14:10.526Z,7.67
2019-05-23T19:16:39.701Z,6.60
2019-05-23T19:19:07.803Z,6.70
2019-05-23T19:21:35.944Z,6.80
2019-05-23T19:24:04.713Z,7.37
2019-05-23T19:26:32.826Z,4.43
2019-05-23T19:29:01.203Z,6.27
2019-05-23T19:31:29.625Z,7.60
2019-05-23T19:33:58.500Z,7.77
2019-05-23T19:36:27.733Z,6.07
2019-05-23T19:38:56.133Z,6.87
2019-05-23T19:41:36.871Z,6.77
2019-05-23T19:43:54.470Z,6.37
2019-05-23T19:46:22.609Z,5.63
2019-05-23T19:48:50.789Z,5.53
2019-05-23T19:51:20.344Z,7.93
2019-05-23T19:53:49.329Z,5.53
2019-05-23T19:56:17.931Z,6.10
2019-05-23T19:58:46.280Z,6.87
2019-05-23T20:01:14.462Z,9.47
2019-05-23T20:03:42.932Z,8.50
2019-05-23T20:06:11.812Z,9.30
2019-05-23T20:08:40.189Z,6.67
2019-05-23T20:11:08.746Z,5.50
2019-05-23T20:13:36.930Z,8.20
2019-05-23T20:16:05.545Z,7.10
2019-05-23T20:18:34.009Z,4.83
2019-05-23T20:21:02.853Z,7.90
2019-05-23T20:23:31.044Z,5.60
2019-05-23T20:25:59.226Z,6.53
2019-05-23T20:28:27.425Z,5.53
2019-05-23T20:30:56.147Z,6.90
2019-05-23T20:33:24.425Z,6.40
2019-05-23T20:35:52.566Z,7.80
2019-05-23T20:38:20.820Z,6.57
2019-05-23T20:40:49.003Z,5.57
2019-05-23T20:43:17.176Z,8.17
2019-05-23T20:45:45.567Z,7.67
2019-05-23T20:48:13.695Z,5.87
2019-05-23T20:50:41.912Z,5.63
2019-05-23T20:53:10.120Z,6.80
2019-05-23T20:55:38.403Z,4.90
2019-05-23T20:58:06.681Z,6.83
2019-05-23T21:00:36.604Z,9.13
2019-05-23T21:03:05.371Z,5.20
2019-05-23T21:05:33.853Z,5.03
2019-05-23T21:08:02.127Z,6.67
2019-05-23T21:10:43.839Z,8.60
2019-05-23T21:13:12.041Z,5.30
2019-05-23T21:15:41.022Z,5.53
2019-05-23T21:18:09.377Z,7.10
2019-05-23T21:20:37.554Z,5.73
2019-05-23T21:23:05.770Z,5.77
2019-05-23T21:25:35.020Z,8.73
2019-05-23T21:28:03.276Z,6.37
2019-05-23T21:30:32.032Z,8.60
2019-05-23T21:33:00.308Z,7.50
2019-05-23T21:35:28.459Z,8.07
2019-05-23T21:37:56.694Z,6.53
2019-05-23T21:40:35.315Z,8.10
2019-05-23T21:43:03.928Z,7.00
2019-05-23T21:45:32.139Z,7.30
2019-05-23T21:48:00.280Z,6.67
2019-05-23T21:50:28.567Z,5.53
2019-05-23T21:52:56.775Z,7.93
2019-05-23T21:55:29.142Z,5.30
2019-05-23T21:57:57.244Z,7.47
2019-05-23T22:00:28.556Z,7.07
2019-05-23T22:02:56.681Z,5.60
2019-05-23T22:05:25.242Z,7.60
2019-05-23T22:07:53.864Z,6.40
2019-05-23T22:10:22.073Z,7.60
2019-05-23T22:13:03.344Z,6.87
2019-05-23T22:15:21.547Z,4.77
2019-05-23T22:17:49.676Z,8.10
2019-05-23T22:20:17.789Z,7.27
2019-05-23T22:22:46.282Z,8.53
2019-05-23T22:25:15.929Z,7.70
2019-05-23T22:27:44.036Z,7.77
2019-05-23T22:30:13.244Z,7.50
2019-05-23T22:32:41.456Z,7.53
2019-05-23T22:35:11.401Z,9.13
2019-05-23T22:37:39.515Z,6.67
2019-05-23T22:40:07.765Z,7.57
2019-05-23T22:42:36.879Z,6.07
2019-05-23T22:45:07.696Z,6.93
2019-05-23T22:47:35.832Z,4.90
2019-05-23T22:50:05.426Z,8.67
2019-05-23T22:52:33.544Z,9.23
2019-05-23T22:55:01.708Z,6.17
2019-05-23T22:57:29.936Z,5.53
2019-05-23T22:59:58.133Z,5.67
2019-05-23T23:02:26.399Z,5.63
2019-05-23T23:04:54.531Z,5.40
2019-05-23T23:07:22.982Z,8.60
2019-05-23T23:09:51.169Z,6.23
2019-05-23T23:12:19.537Z,6.70
2019-05-23T23:14:47.641Z,5.43
2019-05-23T23:17:16.652Z,6.07
2019-05-23T23:19:44.760Z,7.57
2019-05-23T23:22:13.245Z,5.17
2019-05-23T23:24:41.376Z,6.73
2019-05-23T23:27:09.558Z,8.13
2019-05-23T23:29:37.768Z,8.53
2019-05-23T23:32:05.939Z,7.37
2019-05-23T23:34:34.073Z,7.43
2019-05-23T23:37:02.187Z,5.47
2019-05-23T23:39:30.359Z,6.77
2019-05-23T23:41:58.492Z,7.07
2019-05-23T23:44:35.406Z,9.03
2019-05-23T23:47:22.625Z,7.97
2019-05-23T23:50:09.031Z,6.63
2019-05-23T23:52:55.275Z,7.47
2019-05-23T23:55:41.739Z,6.97
2019-05-23T23:58:09.284Z,5.37
